Deer Mountain, Utah
Current Conditions -  °F | °C
As of 12:53 AM on Friday 24 Oct 2014 (Local Time) from KEVW Reporting Station
Clear Clear  
Wind Chill: 51°   Ceiling: Unl
Heat Index: 51°   Visibility: 10mi
Dew Point: 23°   Wind: 13mph
Humidity: 33%   Direction: 220°SW
Pressure: 30.2"   Gusts: NA
Location:  40.8065°N, 110.723°W
Report Text: KEVW 240653Z AUTO 22011KT 10SM CLR 11/M05 A3020 RMK AO2 SLP148 T01061050 401940022 TSNO
Loading
Personal Weather Stations






























Interactive Weather Map
Tropical Storm Tracking
New forecast layout! Learn more

10-Day Weather Forecast

Advertisements
Track Severe Weather on mobile